Terminal Aerodrome Forecast
Issued by NWS Wilmington, NC

Home | Current Version | Previous Version | Text Only | Print | Product List | Glossary On
Versions: 1 2 3 4 5 6 7 8 9 10 11 12 13
974
FTUS42 KILM 241120
TAFMYR
TAF
KMYR 241120Z 2412/2512 01005KT P6SM SCT030
      TEMPO 2412/2413 6SM BR
     FM241300 04009KT P6SM SCT250
     FM241800 09010KT P6SM FEW250
     FM250300 05004KT P6SM SKC
     FM250900 00000KT 1/2SM FG VV002=

USA.gov is the U.S. government's official web portal to all federal, state and local government web resources and services.